createdAt,value
2022-08-27T00:01:49.199Z,19.90
2022-08-27T00:04:22.353Z,19.80
2022-08-27T00:06:55.435Z,19.78
2022-08-27T00:09:30.164Z,19.70
2022-08-27T00:12:03.739Z,19.60
2022-08-27T00:14:38.834Z,19.50
2022-08-27T00:17:12.566Z,19.40
2022-08-27T00:19:45.801Z,19.30
2022-08-27T00:22:18.752Z,19.30
2022-08-27T00:24:51.528Z,19.20
2022-08-27T00:27:24.719Z,19.10
2022-08-27T00:29:58.017Z,19.00
2022-08-27T00:32:31.688Z,18.90
2022-08-27T00:35:04.710Z,18.80
2022-08-27T00:37:38.056Z,18.80
2022-08-27T00:40:17.909Z,18.70
2022-08-27T00:42:51.358Z,18.68
2022-08-27T00:45:26.932Z,18.60
2022-08-27T00:48:03.187Z,18.60
2022-08-27T00:50:40.133Z,18.50
2022-08-27T00:53:17.631Z,18.50
2022-08-27T00:55:55.839Z,18.50
2022-08-27T00:58:34.024Z,18.40
2022-08-27T01:01:08.599Z,18.40
2022-08-27T01:03:42.910Z,18.40
2022-08-27T01:06:18.443Z,18.40
2022-08-27T01:08:56.004Z,18.40
2022-08-27T01:11:29.280Z,18.40
2022-08-27T01:14:02.318Z,18.30
2022-08-27T01:16:39.752Z,18.30
2022-08-27T01:19:31.831Z,18.20
2022-08-27T01:22:20.385Z,18.12
2022-08-27T01:25:01.409Z,18.10
2022-08-27T01:27:34.640Z,18.00
2022-08-27T01:30:10.470Z,18.00
2022-08-27T01:32:44.307Z,18.00
2022-08-27T01:35:20.838Z,17.90
2022-08-27T01:37:57.086Z,17.90
2022-08-27T01:40:30.344Z,17.86
2022-08-27T01:43:03.532Z,17.80
2022-08-27T01:45:40.674Z,17.80
2022-08-27T01:48:13.497Z,17.70
2022-08-27T01:50:48.555Z,17.70
2022-08-27T01:53:24.964Z,17.64
2022-08-27T01:55:59.223Z,17.60
2022-08-27T01:58:35.074Z,17.60
2022-08-27T02:01:13.125Z,17.60
2022-08-27T02:03:47.839Z,17.60
2022-08-27T02:06:20.730Z,17.60
2022-08-27T02:08:53.676Z,17.60
2022-08-27T02:11:26.560Z,17.60
2022-08-27T02:13:59.456Z,17.60
2022-08-27T02:16:32.680Z,17.60
2022-08-27T02:19:06.591Z,17.60
2022-08-27T02:21:43.043Z,17.62
2022-08-27T02:24:16.308Z,17.68
2022-08-27T02:26:49.598Z,17.70
2022-08-27T02:29:22.482Z,17.70
2022-08-27T02:31:55.674Z,17.70
2022-08-27T02:34:28.557Z,17.70
2022-08-27T02:37:01.754Z,17.70
2022-08-27T02:39:34.841Z,17.70
2022-08-27T02:42:11.680Z,17.70
2022-08-27T02:44:44.698Z,17.70
2022-08-27T02:47:17.934Z,17.80
2022-08-27T02:49:51.240Z,17.90
2022-08-27T02:52:25.249Z,18.00
2022-08-27T02:54:58.692Z,18.10
2022-08-27T02:57:36.496Z,18.20
2022-08-27T03:00:15.876Z,18.30
2022-08-27T03:02:49.392Z,18.20
2022-08-27T03:05:23.673Z,18.12
2022-08-27T03:07:56.534Z,18.08
2022-08-27T03:10:30.234Z,18.00
2022-08-27T03:13:03.259Z,17.86
2022-08-27T03:15:36.002Z,17.80
2022-08-27T03:18:22.194Z,17.70
2022-08-27T03:20:57.898Z,17.60
2022-08-27T03:23:34.321Z,17.56
2022-08-27T03:26:13.552Z,17.50
2022-08-27T03:28:46.954Z,17.40
2022-08-27T03:31:27.873Z,17.32
2022-08-27T03:34:04.605Z,17.30
2022-08-27T03:36:37.670Z,17.20
2022-08-27T03:39:10.472Z,17.20
2022-08-27T03:41:54.284Z,17.18
2022-08-27T03:44:28.288Z,17.14
2022-08-27T03:47:01.948Z,17.18
2022-08-27T03:49:35.085Z,17.18
2022-08-27T03:52:08.921Z,17.20
2022-08-27T03:54:42.414Z,17.30
2022-08-27T03:57:15.651Z,17.40
2022-08-27T03:59:48.988Z,17.50
2022-08-27T04:02:27.255Z,17.50
2022-08-27T04:05:00.409Z,17.60
2022-08-27T04:07:34.017Z,17.68
2022-08-27T04:10:08.083Z,17.70
2022-08-27T04:12:41.989Z,17.80
2022-08-27T04:15:16.549Z,17.80
2022-08-27T04:17:49.542Z,17.80
2022-08-27T04:20:35.118Z,17.80
2022-08-27T04:23:09.850Z,17.74
2022-08-27T04:25:45.720Z,17.70
2022-08-27T04:28:20.024Z,17.70
2022-08-27T04:30:52.980Z,17.60
2022-08-27T04:33:25.974Z,17.60
2022-08-27T04:36:05.442Z,17.60
2022-08-27T04:38:39.120Z,17.60
2022-08-27T04:41:25.438Z,17.60
2022-08-27T04:44:03.891Z,17.70
2022-08-27T04:46:39.450Z,17.70
2022-08-27T04:49:16.108Z,17.70
2022-08-27T04:51:49.264Z,17.80
2022-08-27T04:54:32.948Z,17.90
2022-08-27T04:57:08.310Z,17.92
2022-08-27T04:59:41.740Z,18.00
2022-08-27T05:02:14.635Z,18.10
2022-08-27T05:04:47.613Z,18.20
2022-08-27T05:07:20.814Z,18.30
2022-08-27T05:09:54.635Z,18.40
2022-08-27T05:12:27.531Z,18.50
2022-08-27T05:15:00.835Z,18.60
2022-08-27T05:17:35.373Z,18.70
2022-08-27T05:20:11.126Z,18.82
2022-08-27T05:22:43.950Z,18.90
2022-08-27T05:25:17.136Z,19.00
2022-08-27T05:27:50.129Z,19.20
2022-08-27T05:30:23.729Z,19.30
2022-08-27T05:32:56.829Z,19.40
2022-08-27T05:35:30.094Z,19.50
2022-08-27T05:38:02.925Z,19.60
2022-08-27T05:40:36.017Z,19.70
2022-08-27T05:43:09.575Z,19.86
2022-08-27T05:45:47.194Z,20.00
2022-08-27T05:48:20.641Z,20.38
2022-08-27T05:50:53.781Z,20.70
2022-08-27T05:53:26.856Z,20.82
2022-08-27T05:56:01.081Z,21.00
2022-08-27T05:58:54.040Z,21.10
2022-08-27T06:01:25.594Z,21.20
2022-08-27T06:03:58.870Z,21.30
2022-08-27T06:06:32.265Z,21.40
2022-08-27T06:09:06.097Z,21.48
2022-08-27T06:11:40.634Z,21.50
2022-08-27T06:14:13.759Z,21.60
2022-08-27T06:16:46.809Z,21.76
2022-08-27T06:19:20.282Z,21.82
2022-08-27T06:22:00.144Z,21.90
2022-08-27T06:24:34.415Z,22.00
2022-08-27T06:27:07.674Z,22.10
2022-08-27T06:29:41.131Z,22.20
2022-08-27T06:32:14.973Z,22.30
2022-08-27T06:34:49.044Z,22.40
2022-08-27T06:37:21.939Z,22.50
2022-08-27T06:39:54.955Z,22.60
2022-08-27T06:42:28.067Z,22.70
2022-08-27T06:45:01.162Z,22.80
2022-08-27T06:47:35.798Z,22.80
2022-08-27T06:50:10.698Z,22.80
2022-08-27T06:52:43.538Z,22.90
2022-08-27T06:55:16.627Z,22.90
2022-08-27T06:57:49.717Z,23.00
2022-08-27T07:00:23.115Z,23.10
2022-08-27T07:02:59.024Z,23.20
2022-08-27T07:05:32.264Z,23.30
2022-08-27T07:08:06.814Z,23.30
2022-08-27T07:10:40.434Z,23.46
2022-08-27T07:13:13.478Z,23.60
2022-08-27T07:15:46.641Z,23.72
2022-08-27T07:18:27.098Z,23.82
2022-08-27T07:21:00.933Z,23.90
2022-08-27T07:23:34.928Z,24.10
2022-08-27T07:26:13.028Z,24.20
2022-08-27T07:28:47.893Z,24.22
2022-08-27T07:31:26.029Z,24.30
2022-08-27T07:33:58.773Z,24.40
2022-08-27T07:36:32.067Z,24.52
2022-08-27T07:39:05.566Z,24.70
2022-08-27T07:41:59.847Z,24.88
2022-08-27T07:44:34.705Z,25.10
2022-08-27T07:47:11.383Z,25.30
2022-08-27T07:49:44.242Z,25.58
2022-08-27T07:52:17.608Z,25.86
2022-08-27T07:54:50.519Z,26.18
2022-08-27T07:57:23.310Z,26.38
2022-08-27T07:59:56.499Z,26.60
2022-08-27T08:02:31.364Z,26.94
2022-08-27T08:05:06.019Z,27.22
2022-08-27T08:07:40.258Z,27.52
2022-08-27T08:10:14.635Z,27.90
2022-08-27T08:12:47.814Z,28.28
2022-08-27T08:15:21.467Z,28.50
2022-08-27T08:17:54.613Z,28.60
2022-08-27T08:20:54.094Z,28.80
2022-08-27T08:23:21.332Z,29.14
2022-08-27T08:25:54.293Z,29.40
2022-08-27T08:28:27.934Z,29.66
2022-08-27T08:31:01.785Z,29.80
2022-08-27T08:33:35.513Z,29.90
2022-08-27T08:36:15.716Z,30.00
2022-08-27T08:38:51.432Z,30.04
2022-08-27T08:41:42.646Z,30.20
2022-08-27T08:44:28.013Z,30.10
2022-08-27T08:47:08.603Z,30.26
2022-08-27T08:49:52.605Z,30.72
2022-08-27T08:52:42.516Z,31.40
2022-08-27T08:55:30.124Z,31.86
2022-08-27T08:58:14.953Z,32.20
2022-08-27T09:00:54.877Z,31.84
2022-08-27T09:03:29.191Z,31.68
2022-08-27T09:06:07.693Z,31.40
2022-08-27T09:08:43.608Z,30.94
2022-08-27T09:11:28.350Z,30.42
2022-08-27T09:14:11.535Z,30.02
2022-08-27T09:16:46.146Z,30.46
2022-08-27T09:19:24.681Z,31.06
2022-08-27T09:22:07.600Z,31.30
2022-08-27T09:24:50.273Z,31.30
2022-08-27T09:27:24.681Z,31.30
2022-08-27T09:29:59.105Z,31.00
2022-08-27T09:32:35.993Z,30.80
2022-08-27T09:35:13.512Z,30.64
2022-08-27T09:37:49.689Z,30.50
2022-08-27T09:40:30.817Z,30.50
2022-08-27T09:43:20.438Z,31.06
2022-08-27T09:45:56.302Z,31.54
2022-08-27T09:48:32.318Z,32.06
2022-08-27T09:51:12.514Z,32.20
2022-08-27T09:53:51.044Z,32.08
2022-08-27T09:56:33.636Z,31.68
2022-08-27T09:59:10.858Z,31.32
2022-08-27T10:01:56.486Z,31.20
2022-08-27T10:04:50.608Z,31.00
2022-08-27T10:07:39.563Z,31.00
2022-08-27T10:10:21.048Z,31.32
2022-08-27T10:13:09.087Z,32.88
2022-08-27T10:15:56.263Z,33.20
2022-08-27T10:18:41.922Z,33.00
2022-08-27T10:21:25.565Z,33.38
2022-08-27T10:24:19.600Z,34.16
2022-08-27T10:27:06.002Z,35.02
2022-08-27T10:29:54.631Z,36.44
2022-08-27T10:32:36.408Z,37.62
2022-08-27T10:35:19.578Z,38.64
2022-08-27T10:38:09.173Z,39.26
2022-08-27T10:40:48.036Z,39.90
2022-08-27T10:43:45.840Z,39.70
2022-08-27T10:46:50.018Z,38.54
2022-08-27T10:49:34.998Z,38.00
2022-08-27T10:52:18.428Z,38.36
2022-08-27T10:54:58.723Z,37.84
2022-08-27T10:58:00.846Z,37.06
2022-08-27T11:00:44.846Z,37.08
2022-08-27T11:03:25.361Z,38.42
2022-08-27T11:06:01.254Z,38.64
2022-08-27T11:08:44.600Z,39.40
2022-08-27T11:12:12.766Z,40.38
2022-08-27T11:14:35.608Z,40.12
2022-08-27T11:17:14.945Z,39.36
2022-08-27T11:20:00.528Z,38.62
2022-08-27T11:22:38.836Z,37.86
2022-08-27T11:25:28.954Z,37.80
2022-08-27T11:28:04.045Z,38.10
2022-08-27T11:30:57.026Z,38.74
2022-08-27T11:33:44.104Z,39.20
2022-08-27T11:36:54.336Z,38.86
2022-08-27T11:40:08.066Z,38.78
2022-08-27T11:42:45.948Z,38.18
2022-08-27T11:45:31.256Z,38.00
2022-08-27T11:48:16.804Z,38.30
2022-08-27T11:51:04.854Z,38.76
2022-08-27T11:53:42.803Z,39.50
2022-08-27T11:56:42.222Z,40.66
2022-08-27T11:59:24.022Z,42.28
2022-08-27T12:02:11.356Z,42.16
2022-08-27T12:04:45.022Z,41.46
2022-08-27T12:07:41.090Z,41.00
2022-08-27T12:10:53.369Z,42.46
2022-08-27T12:13:36.676Z,42.50
2022-08-27T12:16:27.505Z,41.80
2022-08-27T12:19:22.344Z,42.32
2022-08-27T12:22:11.096Z,43.24
2022-08-27T12:24:56.841Z,42.72
2022-08-27T12:27:38.624Z,42.38
2022-08-27T12:30:37.374Z,42.00
2022-08-27T12:33:25.612Z,41.90
2022-08-27T12:36:07.611Z,40.86
2022-08-27T12:38:50.643Z,39.60
2022-08-27T12:41:43.902Z,39.60
2022-08-27T12:44:26.858Z,39.90
2022-08-27T12:47:12.225Z,40.48
2022-08-27T12:49:53.839Z,41.34
2022-08-27T12:53:08.974Z,42.74
2022-08-27T12:56:01.531Z,43.20
2022-08-27T12:58:48.453Z,43.20
2022-08-27T13:01:55.019Z,43.26
2022-08-27T13:04:32.266Z,43.72
2022-08-27T13:07:05.254Z,44.42
2022-08-27T13:09:41.016Z,45.12
2022-08-27T13:12:24.846Z,45.70
2022-08-27T13:15:07.254Z,44.96
2022-08-27T13:17:45.732Z,43.76
2022-08-27T13:20:25.066Z,43.34
2022-08-27T13:22:58.397Z,42.84
2022-08-27T13:25:35.069Z,41.58
2022-08-27T13:28:15.332Z,40.22
2022-08-27T13:30:49.806Z,39.18
2022-08-27T13:33:29.074Z,39.42
2022-08-27T13:36:04.070Z,40.40
2022-08-27T13:38:40.686Z,40.06
2022-08-27T13:41:25.241Z,39.14
2022-08-27T13:43:59.775Z,38.00
2022-08-27T13:46:34.722Z,37.24
2022-08-27T13:49:09.327Z,36.76
2022-08-27T13:51:42.518Z,36.22
2022-08-27T13:54:16.033Z,35.66
2022-08-27T13:57:08.893Z,35.12
2022-08-27T13:59:43.823Z,34.54
2022-08-27T14:02:33.450Z,34.16
2022-08-27T14:05:15.638Z,33.90
2022-08-27T14:07:54.090Z,33.76
2022-08-27T14:10:37.152Z,33.88
2022-08-27T14:13:14.849Z,34.26
2022-08-27T14:15:50.926Z,34.60
2022-08-27T14:18:55.168Z,34.80
2022-08-27T14:21:24.501Z,35.26
2022-08-27T14:24:00.256Z,35.20
2022-08-27T14:26:33.861Z,34.80
2022-08-27T14:29:12.223Z,34.40
2022-08-27T14:31:45.805Z,33.92
2022-08-27T14:34:18.753Z,33.48
2022-08-27T14:36:54.766Z,33.00
2022-08-27T14:39:28.418Z,32.56
2022-08-27T14:42:02.300Z,32.18
2022-08-27T14:44:35.420Z,31.74
2022-08-27T14:47:10.226Z,31.30
2022-08-27T14:49:47.183Z,30.90
2022-08-27T14:52:20.204Z,30.58
2022-08-27T14:54:53.199Z,30.30
2022-08-27T14:57:26.247Z,30.10
2022-08-27T14:59:59.619Z,29.80
2022-08-27T15:02:33.245Z,29.60
2022-08-27T15:05:12.141Z,29.42
2022-08-27T15:07:47.160Z,29.22
2022-08-27T15:10:20.948Z,29.04
2022-08-27T15:12:54.759Z,28.80
2022-08-27T15:15:28.064Z,28.60
2022-08-27T15:18:01.240Z,28.36
2022-08-27T15:20:34.622Z,28.20
2022-08-27T15:23:08.032Z,28.10
2022-08-27T15:25:42.082Z,28.00
2022-08-27T15:28:15.239Z,27.90
2022-08-27T15:30:48.363Z,27.80
2022-08-27T15:33:21.510Z,27.70
2022-08-27T15:35:54.722Z,27.70
2022-08-27T15:38:28.030Z,27.60
2022-08-27T15:41:00.878Z,27.60
2022-08-27T15:43:33.945Z,27.54
2022-08-27T15:46:07.318Z,27.50
2022-08-27T15:48:40.267Z,27.50
2022-08-27T15:51:15.045Z,27.50
2022-08-27T15:53:47.770Z,27.50
2022-08-27T15:56:21.895Z,27.50
2022-08-27T15:58:55.380Z,27.50
2022-08-27T16:01:31.499Z,27.50
2022-08-27T16:04:06.233Z,27.52
2022-08-27T16:06:39.435Z,27.60
2022-08-27T16:09:12.330Z,27.60
2022-08-27T16:11:45.850Z,27.50
2022-08-27T16:14:19.166Z,27.60
2022-08-27T16:16:52.412Z,27.60
2022-08-27T16:19:25.962Z,27.60
2022-08-27T16:21:59.119Z,27.60
2022-08-27T16:24:32.212Z,27.50
2022-08-27T16:27:05.424Z,27.76
2022-08-27T16:29:38.471Z,28.76
2022-08-27T16:32:18.821Z,29.78
2022-08-27T16:34:53.273Z,30.00
2022-08-27T16:37:29.740Z,29.80
2022-08-27T16:40:02.561Z,29.60
2022-08-27T16:42:35.450Z,29.40
2022-08-27T16:45:14.016Z,29.20
2022-08-27T16:48:05.598Z,29.00
2022-08-27T16:50:39.890Z,28.80
2022-08-27T16:53:15.705Z,28.60
2022-08-27T16:55:50.943Z,28.42
2022-08-27T16:58:29.358Z,28.30
2022-08-27T17:01:07.523Z,28.20
2022-08-27T17:04:07.298Z,28.08
2022-08-27T17:06:40.479Z,27.90
2022-08-27T17:09:15.810Z,27.80
2022-08-27T17:11:52.285Z,27.70
2022-08-27T17:14:25.684Z,27.60
2022-08-27T17:16:58.579Z,27.50
2022-08-27T17:19:35.042Z,27.40
2022-08-27T17:22:09.797Z,27.30
2022-08-27T17:24:43.050Z,27.20
2022-08-27T17:27:18.332Z,27.04
2022-08-27T17:29:51.532Z,26.90
2022-08-27T17:32:24.893Z,26.80
2022-08-27T17:35:02.322Z,26.70
2022-08-27T17:37:38.750Z,26.58
2022-08-27T17:40:14.550Z,26.40
2022-08-27T17:42:47.574Z,26.30
2022-08-27T17:45:20.620Z,26.20
2022-08-27T17:47:53.690Z,26.10
2022-08-27T17:50:26.645Z,25.90
2022-08-27T17:53:00.550Z,25.80
2022-08-27T17:55:33.435Z,25.68
2022-08-27T17:58:07.382Z,25.50
2022-08-27T18:00:41.388Z,25.40
2022-08-27T18:03:20.945Z,25.20
2022-08-27T18:05:53.704Z,25.10
2022-08-27T18:08:26.551Z,24.90
2022-08-27T18:10:59.748Z,24.80
2022-08-27T18:13:33.554Z,24.60
2022-08-27T18:16:07.333Z,24.50
2022-08-27T18:18:41.818Z,24.40
2022-08-27T18:21:20.819Z,24.30
2022-08-27T18:23:59.337Z,24.20
2022-08-27T18:26:32.848Z,24.10
2022-08-27T18:29:05.712Z,24.00
2022-08-27T18:31:39.045Z,23.90
2022-08-27T18:34:11.887Z,23.80
2022-08-27T18:36:44.801Z,23.72
2022-08-27T18:39:17.770Z,23.70
2022-08-27T18:41:50.669Z,23.60
2022-08-27T18:44:23.460Z,23.50
2022-08-27T18:46:56.329Z,23.50
2022-08-27T18:49:30.592Z,23.40
2022-08-27T18:52:03.990Z,23.30
2022-08-27T18:54:37.351Z,23.30
2022-08-27T18:57:11.822Z,23.20
2022-08-27T18:59:46.154Z,23.20
2022-08-27T19:02:21.532Z,23.20
2022-08-27T19:04:55.024Z,23.10
2022-08-27T19:07:30.034Z,23.10
2022-08-27T19:10:03.001Z,23.00
2022-08-27T19:12:36.700Z,23.00
2022-08-27T19:15:12.498Z,23.00
2022-08-27T19:17:48.646Z,22.90
2022-08-27T19:20:22.040Z,22.90
2022-08-27T19:22:55.541Z,22.80
2022-08-27T19:25:29.784Z,22.80
2022-08-27T19:28:02.947Z,22.70
2022-08-27T19:30:35.914Z,22.70
2022-08-27T19:33:09.023Z,22.60
2022-08-27T19:35:43.339Z,22.60
2022-08-27T19:38:17.410Z,22.50
2022-08-27T19:40:50.232Z,22.50
2022-08-27T19:43:23.123Z,22.50
2022-08-27T19:45:57.487Z,22.40
2022-08-27T19:48:30.487Z,22.36
2022-08-27T19:51:03.607Z,22.30
2022-08-27T19:53:37.036Z,22.26
2022-08-27T19:56:13.488Z,22.20
2022-08-27T19:58:47.475Z,22.10
2022-08-27T20:01:20.615Z,22.10
2022-08-27T20:03:53.507Z,22.10
2022-08-27T20:06:31.470Z,22.00
2022-08-27T20:09:06.842Z,22.00
2022-08-27T20:11:39.782Z,21.90
2022-08-27T20:14:12.973Z,21.90
2022-08-27T20:16:46.315Z,21.90
2022-08-27T20:19:23.459Z,21.90
2022-08-27T20:21:56.442Z,21.90
2022-08-27T20:24:29.430Z,21.90
2022-08-27T20:27:02.395Z,21.90
2022-08-27T20:29:35.420Z,21.90
2022-08-27T20:32:08.665Z,21.90
2022-08-27T20:34:41.794Z,21.90
2022-08-27T20:37:14.779Z,21.90
2022-08-27T20:39:48.089Z,21.90
2022-08-27T20:42:21.171Z,21.90
2022-08-27T20:44:54.860Z,21.90
2022-08-27T20:47:29.155Z,21.90
2022-08-27T20:50:03.565Z,21.80
2022-08-27T20:52:37.059Z,21.80
2022-08-27T20:55:14.379Z,21.80
2022-08-27T20:58:05.826Z,21.80
2022-08-27T21:00:42.937Z,21.70
2022-08-27T21:03:17.202Z,21.70
2022-08-27T21:05:50.338Z,21.60
2022-08-27T21:08:24.203Z,21.58
2022-08-27T21:10:59.361Z,21.50
2022-08-27T21:13:33.342Z,21.40
2022-08-27T21:16:06.772Z,21.36
2022-08-27T21:18:40.164Z,21.30
2022-08-27T21:21:13.349Z,21.20
2022-08-27T21:23:46.115Z,21.20
2022-08-27T21:26:20.429Z,21.10
2022-08-27T21:28:55.747Z,21.10
2022-08-27T21:31:29.747Z,21.02
2022-08-27T21:34:02.803Z,21.00
2022-08-27T21:36:35.984Z,21.00
2022-08-27T21:39:09.059Z,21.00
2022-08-27T21:41:42.244Z,20.92
2022-08-27T21:44:15.535Z,20.90
2022-08-27T21:46:48.491Z,20.92
2022-08-27T21:49:21.816Z,21.00
2022-08-27T21:51:55.113Z,21.00
2022-08-27T21:54:28.860Z,21.00
2022-08-27T21:57:04.779Z,21.00
2022-08-27T21:59:43.290Z,21.00
2022-08-27T22:02:39.230Z,21.00
2022-08-27T22:05:11.588Z,21.04
2022-08-27T22:07:44.574Z,21.00
2022-08-27T22:10:18.014Z,21.00
2022-08-27T22:12:50.858Z,21.00
2022-08-27T22:15:28.504Z,21.00
2022-08-27T22:18:02.150Z,21.00
2022-08-27T22:20:35.545Z,20.90
2022-08-27T22:23:09.899Z,20.90
2022-08-27T22:25:44.433Z,20.90
2022-08-27T22:28:18.807Z,20.90
2022-08-27T22:30:52.209Z,20.88
2022-08-27T22:33:25.107Z,20.80
2022-08-27T22:35:58.301Z,20.80
2022-08-27T22:38:31.300Z,20.80
2022-08-27T22:41:04.489Z,20.70
2022-08-27T22:43:38.827Z,20.70
2022-08-27T22:46:12.056Z,20.60
2022-08-27T22:48:45.085Z,20.60
2022-08-27T22:51:18.067Z,20.60
2022-08-27T22:53:51.348Z,20.60
2022-08-27T22:56:24.335Z,20.60
2022-08-27T22:58:57.125Z,20.58
2022-08-27T23:01:30.936Z,20.50
2022-08-27T23:04:04.555Z,20.50
2022-08-27T23:06:38.474Z,20.50
2022-08-27T23:09:11.354Z,20.50
2022-08-27T23:11:44.135Z,20.48
2022-08-27T23:14:16.868Z,20.40
2022-08-27T23:16:49.561Z,20.40
2022-08-27T23:19:22.651Z,20.40
2022-08-27T23:21:56.150Z,20.30
2022-08-27T23:24:29.247Z,20.30
2022-08-27T23:27:20.047Z,20.30
2022-08-27T23:29:53.129Z,20.30
2022-08-27T23:32:26.150Z,20.26
2022-08-27T23:34:59.930Z,20.20
2022-08-27T23:37:33.423Z,20.20
2022-08-27T23:40:09.584Z,20.20
2022-08-27T23:42:44.032Z,20.20
2022-08-27T23:45:22.422Z,20.20
2022-08-27T23:47:55.655Z,20.20
2022-08-27T23:50:33.906Z,20.20
2022-08-27T23:53:08.801Z,20.10
2022-08-27T23:55:42.145Z,20.10
2022-08-27T23:58:15.129Z,20.10
